Time;durP1;ratioP1;P1;durP2;ratioP2;P2;SDS_P1;SDS_P2;PMS_P1;PMS_P2;Temp;Humidity;BMP_temperature;BMP_pressure;BME280_temperature;BME280_humidity;BME280_pressure;Samples;Min_cycle;Max_cycle;Signal;HPM_P1;HPM_P2
2023/10/04 00:01:41;;;;;;;10.23;3.33;;;27.80;67.30;;;;;;4981840;28;20674;-68
2023/10/04 00:04:10;;;;;;;10.40;3.23;;;28.30;60.20;;;;;;4972746;28;20656;-68
2023/10/04 00:06:39;;;;;;;11.17;3.30;;;28.40;60.00;;;;;;4972573;28;20187;-68
2023/10/04 00:09:06;;;;;;;13.50;3.40;;;28.30;65.00;;;;;;4972225;28;20571;-67
2023/10/04 00:11:34;;;;;;;8.43;2.90;;;28.40;63.10;;;;;;4981744;28;20187;-67
2023/10/04 00:14:02;;;;;;;12.03;3.27;;;27.80;63.90;;;;;;4991976;28;20218;-68
2023/10/04 00:16:32;;;;;;;21.47;3.67;;;27.50;66.40;;;;;;4964780;28;20202;-68
2023/10/04 00:19:00;;;;;;;12.77;3.53;;;26.90;58.30;;;;;;4989736;28;20190;-68
2023/10/04 00:21:28;;;;;;;9.93;3.70;;;26.80;62.50;;;;;;4970282;28;20184;-68
2023/10/04 00:23:58;;;;;;;22.10;3.70;;;26.60;62.20;;;;;;4987109;28;20560;-69
2023/10/04 00:26:26;;;;;;;10.13;3.90;;;26.30;67.00;;;;;;4982354;28;20265;-68
2023/10/04 00:28:53;;;;;;;16.60;3.93;;;26.40;69.90;;;;;;4990148;28;20644;-68
2023/10/04 00:31:21;;;;;;;13.83;3.37;;;26.40;73.50;;;;;;4974705;28;20183;-68
2023/10/04 00:33:51;;;;;;;10.57;3.40;;;26.40;74.50;;;;;;4972228;28;20230;-67
2023/10/04 00:36:21;;;;;;;8.90;3.40;;;26.40;75.80;;;;;;4972478;28;20629;-68
2023/10/04 00:38:48;;;;;;;11.90;3.53;;;26.30;78.50;;;;;;4971988;28;20210;-69
2023/10/04 00:41:19;;;;;;;12.87;3.50;;;26.20;83.10;;;;;;4978844;28;20194;-68
2023/10/04 00:43:50;;;;;;;18.30;4.27;;;26.30;85.70;;;;;;4991719;28;20182;-67
2023/10/04 00:46:22;;;;;;;19.97;4.00;;;26.10;88.60;;;;;;4990751;28;20186;-69
2023/10/04 00:48:53;;;;;;;13.47;3.90;;;26.00;91.50;;;;;;4990103;28;20191;-68
2023/10/04 00:51:22;;;;;;;13.17;3.33;;;25.80;93.00;;;;;;4971340;28;20179;-67
2023/10/04 00:53:51;;;;;;;11.70;4.13;;;25.80;95.40;;;;;;4959862;28;20622;-68
2023/10/04 00:56:18;;;;;;;14.63;3.97;;;25.70;96.80;;;;;;4993397;28;20214;-68
2023/10/04 00:58:46;;;;;;;14.83;3.83;;;25.80;96.70;;;;;;4983077;28;20275;-68
2023/10/04 01:01:14;;;;;;;14.43;4.43;;;25.80;98.00;;;;;;4971596;28;20194;-67
2023/10/04 01:03:41;;;;;;;20.40;4.67;;;25.60;99.90;;;;;;4972344;28;20597;-68
2023/10/04 01:06:09;;;;;;;13.87;4.07;;;25.60;99.90;;;;;;4959918;28;20217;-67
2023/10/04 01:08:38;;;;;;;9.93;3.00;;;25.50;99.90;;;;;;4990907;28;20222;-67
2023/10/04 01:11:07;;;;;;;13.50;4.10;;;25.50;99.90;;;;;;4991395;28;20655;-67
2023/10/04 01:13:36;;;;;;;9.87;3.10;;;25.50;99.90;;;;;;4958458;28;20248;-68
2023/10/04 01:16:08;;;;;;;17.73;4.20;;;25.60;99.90;;;;;;4978188;28;20187;-68
2023/10/04 01:18:38;;;;;;;10.13;3.10;;;25.60;99.90;;;;;;4976784;28;20187;-67
2023/10/04 01:21:05;;;;;;;11.87;3.73;;;25.50;99.90;;;;;;4976708;28;20179;-68
2023/10/04 01:23:33;;;;;;;14.10;3.70;;;25.60;99.90;;;;;;4992894;28;20187;-67
2023/10/04 01:26:00;;;;;;;12.00;3.97;;;25.80;99.90;;;;;;4975154;28;20223;-69
2023/10/04 01:28:28;;;;;;;13.83;4.17;;;26.00;99.90;;;;;;4967109;28;20183;-69
2023/10/04 01:30:57;;;;;;;10.60;3.40;;;26.20;99.90;;;;;;4980780;28;20189;-68
2023/10/04 01:33:25;;;;;;;12.77;3.93;;;26.30;99.90;;;;;;4975315;28;20246;-68
2023/10/04 01:35:54;;;;;;;16.37;4.00;;;26.20;99.90;;;;;;4975390;28;20198;-67
2023/10/04 01:38:24;;;;;;;32.13;5.40;;;26.10;99.90;;;;;;4974964;28;20218;-67
2023/10/04 01:40:52;;;;;;;14.27;3.90;;;26.00;99.90;;;;;;4963007;28;20191;-68
2023/10/04 01:43:24;;;;;;;14.23;3.63;;;25.90;99.90;;;;;;4975964;28;20191;-67
2023/10/04 01:45:55;;;;;;;22.03;4.93;;;25.80;99.90;;;;;;4974697;28;20202;-69
2023/10/04 01:48:22;;;;;;;11.83;3.73;;;25.70;99.90;;;;;;4975930;28;20673;-69
2023/10/04 01:50:53;;;;;;;10.57;3.70;;;25.70;99.90;;;;;;4975210;28;20190;-68
2023/10/04 01:53:22;;;;;;;16.03;4.27;;;25.70;99.90;;;;;;4977527;28;20219;-69
2023/10/04 01:55:49;;;;;;;12.63;4.00;;;25.70;99.90;;;;;;4987276;28;20191;-69
2023/10/04 01:58:23;;;;;;;17.10;4.27;;;25.70;99.90;;;;;;4976074;28;20196;-69
2023/10/04 02:00:55;;;;;;;11.67;3.87;;;25.70;99.90;;;;;;4975950;28;20190;-68
2023/10/04 02:03:24;;;;;;;13.97;3.80;;;25.60;99.90;;;;;;4993502;28;20533;-69
2023/10/04 02:05:58;;;;;;;13.53;4.13;;;25.60;99.90;;;;;;4993261;28;20217;-67
2023/10/04 02:08:27;;;;;;;16.33;4.37;;;25.60;99.90;;;;;;4988551;28;20267;-68
2023/10/04 02:10:56;;;;;;;9.27;3.60;;;25.60;99.90;;;;;;4982752;28;20217;-69
2023/10/04 02:13:25;;;;;;;11.40;3.83;;;25.70;99.90;;;;;;4984942;28;20218;-69
2023/10/04 02:15:53;;;;;;;11.60;3.83;;;25.70;99.90;;;;;;4974662;28;20191;-68
2023/10/04 02:18:22;;;;;;;15.77;4.23;;;25.70;99.90;;;;;;5013452;28;20178;-69
2023/10/04 02:20:53;;;;;;;28.57;4.37;;;25.60;99.90;;;;;;4986200;28;20194;-68
2023/10/04 02:23:21;;;;;;;24.33;4.50;;;25.70;99.90;;;;;;4985384;28;20179;-68
2023/10/04 02:25:48;;;;;;;22.57;4.63;;;25.50;99.90;;;;;;4974216;28;20317;-69
2023/10/04 02:28:22;;;;;;;11.77;3.90;;;25.40;99.90;;;;;;4956988;28;20198;-68
2023/10/04 02:30:54;;;;;;;33.87;5.23;;;25.40;99.90;;;;;;4990759;28;20210;-69
2023/10/04 02:33:22;;;;;;;7.63;3.30;;;25.40;99.90;;;;;;4993735;28;20222;-68
2023/10/04 02:35:50;;;;;;;12.10;3.70;;;25.40;99.90;;;;;;4990160;28;20207;-68
2023/10/04 02:38:26;;;;;;;15.17;4.00;;;25.30;99.90;;;;;;4992818;28;20779;-69
2023/10/04 02:40:54;;;;;;;13.83;4.20;;;25.40;99.90;;;;;;4976370;28;20197;-69
2023/10/04 02:43:26;;;;;;;9.20;3.87;;;25.40;99.90;;;;;;4973818;28;20234;-69
2023/10/04 02:45:54;;;;;;;8.93;3.27;;;25.40;99.90;;;;;;4974154;28;20317;-68
2023/10/04 02:48:23;;;;;;;14.70;3.53;;;25.40;99.90;;;;;;4974031;28;20191;-68
2023/10/04 02:50:51;;;;;;;11.47;4.07;;;25.30;99.90;;;;;;4992831;28;20261;-69
2023/10/04 02:53:20;;;;;;;14.80;3.53;;;25.30;99.90;;;;;;4993217;28;20691;-69
2023/10/04 02:55:49;;;;;;;8.50;3.20;;;25.40;99.90;;;;;;4981744;28;20227;-67
2023/10/04 02:58:17;;;;;;;20.87;4.40;;;25.30;99.90;;;;;;4978121;28;20700;-69
2023/10/04 03:00:46;;;;;;;14.60;3.90;;;25.10;99.90;;;;;;4984984;28;20195;-69
2023/10/04 03:03:14;;;;;;;10.77;3.87;;;25.10;99.90;;;;;;4992669;28;20209;-68
2023/10/04 03:05:43;;;;;;;10.33;3.40;;;25.10;99.90;;;;;;4989318;28;20282;-68
2023/10/04 03:08:11;;;;;;;15.20;4.27;;;25.10;99.90;;;;;;4974496;28;20187;-68
2023/10/04 03:10:38;;;;;;;12.67;4.50;;;25.20;99.90;;;;;;4990856;28;20676;-69
2023/10/04 03:13:12;;;;;;;12.20;4.10;;;25.20;99.90;;;;;;4992573;28;20198;-70
2023/10/04 03:15:47;;;;;;;22.33;4.50;;;25.10;99.90;;;;;;4976047;28;20623;-69
2023/10/04 03:18:17;;;;;;;22.47;4.20;;;25.10;99.90;;;;;;4973757;28;20763;-68
2023/10/04 03:21:20;;;;;;;11.70;4.00;;;25.20;99.90;;;;;;4990621;28;20719;-68
2023/10/04 03:23:40;;;;;;;13.33;3.77;;;25.10;99.90;;;;;;4986010;28;20186;-68
2023/10/04 03:26:12;;;;;;;15.40;3.37;;;25.10;99.90;;;;;;4974078;28;20334;-68
2023/10/04 03:28:40;;;;;;;13.53;3.70;;;24.90;99.90;;;;;;4957644;28;20187;-68
2023/10/04 03:31:14;;;;;;;10.57;3.40;;;24.70;99.90;;;;;;4954204;28;20198;-69
2023/10/04 03:33:45;;;;;;;12.17;3.90;;;24.20;99.90;;;;;;4987226;28;20221;-69
2023/10/04 03:36:17;;;;;;;12.87;3.90;;;23.80;99.90;;;;;;4975202;28;20283;-68
2023/10/04 03:38:45;;;;;;;11.70;3.80;;;23.60;99.90;;;;;;4991547;28;20198;-69
2023/10/04 03:41:13;;;;;;;11.10;4.30;;;23.40;99.90;;;;;;4983769;28;20186;-69
2023/10/04 03:43:40;;;;;;;16.93;4.27;;;23.20;99.90;;;;;;4992580;28;20241;-69
2023/10/04 03:46:19;;;;;;;20.77;4.10;;;23.00;99.90;;;;;;4991721;28;20281;-67
2023/10/04 03:48:48;;;;;;;12.27;3.80;;;23.00;99.90;;;;;;4992574;28;20257;-70
2023/10/04 03:51:22;;;;;;;8.13;3.30;;;23.20;99.90;;;;;;4983571;28;20704;-69
2023/10/04 03:53:52;;;;;;;9.27;3.10;;;23.30;99.90;;;;;;4972543;28;20250;-70
2023/10/04 03:56:22;;;;;;;9.73;2.80;;;23.40;99.90;;;;;;4973103;28;20592;-69
2023/10/04 03:58:50;;;;;;;8.73;3.00;;;23.50;99.90;;;;;;4973086;28;20184;-69
2023/10/04 04:01:27;;;;;;;13.10;3.93;;;23.60;99.90;;;;;;4981096;28;20190;-68
2023/10/04 04:03:58;;;;;;;11.90;3.97;;;23.70;99.90;;;;;;4992316;28;20206;-68
2023/10/04 04:06:29;;;;;;;11.97;3.47;;;23.50;99.90;;;;;;4972699;28;20229;-71
2023/10/04 04:09:00;;;;;;;7.47;3.30;;;23.30;99.90;;;;;;4973931;28;20187;-70
2023/10/04 04:11:31;;;;;;;10.30;3.57;;;23.30;99.90;;;;;;4973824;28;20197;-70
2023/10/04 04:13:59;;;;;;;10.93;3.67;;;23.50;99.90;;;;;;4973050;28;20219;-70
2023/10/04 04:16:26;;;;;;;8.10;3.27;;;23.60;99.90;;;;;;4972490;28;20206;-71
2023/10/04 04:18:55;;;;;;;12.53;3.50;;;23.70;99.90;;;;;;4972157;28;20223;-70
2023/10/04 04:21:28;;;;;;;7.07;2.70;;;23.80;99.90;;;;;;4980768;28;20244;-71
2023/10/04 04:23:56;;;;;;;12.10;3.50;;;23.70;99.90;;;;;;4991811;28;20185;-68
2023/10/04 04:26:26;;;;;;;11.03;3.37;;;23.80;99.90;;;;;;4979171;28;20699;-70
2023/10/04 04:28:55;;;;;;;13.40;3.60;;;23.80;99.90;;;;;;4972872;28;20179;-68
2023/10/04 04:31:22;;;;;;;13.20;3.50;;;23.90;99.90;;;;;;4979680;28;20797;-71
2023/10/04 04:33:50;;;;;;;14.07;3.20;;;23.80;99.90;;;;;;4992258;28;20313;-70
2023/10/04 04:36:26;;;;;;;12.03;3.50;;;23.60;99.90;;;;;;4992158;28;20531;-70
2023/10/04 04:38:55;;;;;;;14.93;4.03;;;23.40;99.90;;;;;;4991947;28;20290;-68
2023/10/04 04:41:25;;;;;;;11.23;3.43;;;23.40;99.90;;;;;;4958976;28;20570;-70
2023/10/04 04:43:52;;;;;;;17.77;3.83;;;23.40;99.90;;;;;;4982603;28;20187;-69
2023/10/04 04:46:22;;;;;;;11.83;3.47;;;23.40;99.90;;;;;;4975999;28;20200;-68
2023/10/04 04:48:54;;;;;;;11.40;3.07;;;23.50;99.90;;;;;;4976574;28;20700;-70
2023/10/04 04:51:21;;;;;;;12.00;3.37;;;23.60;99.90;;;;;;4976294;28;20716;-69
2023/10/04 04:53:53;;;;;;;9.63;3.60;;;23.60;99.90;;;;;;4975953;28;20289;-69
2023/10/04 04:56:23;;;;;;;11.57;3.23;;;23.30;99.90;;;;;;4976196;28;20234;-68
2023/10/04 04:58:56;;;;;;;11.20;3.87;;;23.00;99.90;;;;;;4976405;28;20283;-68
2023/10/04 05:01:23;;;;;;;10.40;3.40;;;22.60;99.90;;;;;;4976691;28;20183;-68
2023/10/04 05:03:51;;;;;;;13.67;3.50;;;22.10;99.90;;;;;;4980142;28;20545;-69
2023/10/04 05:06:25;;;;;;;12.40;3.50;;;22.00;99.90;;;;;;4976160;28;20202;-68
2023/10/04 05:08:56;;;;;;;9.93;3.30;;;22.10;99.90;;;;;;4975806;28;20182;-68
2023/10/04 05:11:25;;;;;;;11.43;3.80;;;22.20;99.90;;;;;;4976508;28;20218;-69
2023/10/04 05:13:55;;;;;;;9.00;3.00;;;22.20;99.90;;;;;;4977518;28;20211;-66
2023/10/04 05:16:24;;;;;;;9.23;4.00;;;22.30;99.90;;;;;;4977342;28;20650;-70
2023/10/04 05:18:53;;;;;;;11.80;2.93;;;22.40;99.90;;;;;;4969236;28;20700;-71
2023/10/04 05:21:21;;;;;;;6.57;3.00;;;22.50;99.90;;;;;;4980442;28;20266;-68
2023/10/04 05:23:48;;;;;;;15.70;3.33;;;22.70;99.90;;;;;;4984078;28;20187;-71
2023/10/04 05:26:15;;;;;;;8.87;2.97;;;22.80;99.90;;;;;;4984853;28;20590;-67
2023/10/04 05:28:43;;;;;;;6.00;2.37;;;22.90;99.90;;;;;;4991283;28;20202;-70
2023/10/04 05:31:10;;;;;;;8.93;2.20;;;22.90;99.90;;;;;;4995092;28;20175;-71
2023/10/04 05:33:41;;;;;;;8.63;2.80;;;22.90;99.90;;;;;;4994092;28;20620;-72
2023/10/04 05:36:08;;;;;;;10.93;3.30;;;22.90;99.90;;;;;;4977790;28;20211;-71
2023/10/04 05:38:35;;;;;;;8.80;2.83;;;22.80;99.90;;;;;;4995271;28;20229;-72
2023/10/04 05:41:03;;;;;;;7.33;2.50;;;22.70;99.90;;;;;;4991980;28;20259;-72
2023/10/04 05:43:34;;;;;;;9.40;2.90;;;22.80;99.90;;;;;;4984338;28;20640;-69
2023/10/04 05:46:03;;;;;;;8.53;2.90;;;22.80;99.90;;;;;;4968231;28;20206;-70
2023/10/04 05:48:30;;;;;;;8.23;2.87;;;22.80;99.90;;;;;;4984353;28;20211;-71
2023/10/04 05:51:01;;;;;;;5.17;2.43;;;22.80;99.90;;;;;;4983416;28;20183;-72
2023/10/04 05:53:30;;;;;;;8.93;2.60;;;22.80;99.90;;;;;;4957877;28;20700;-72
2023/10/04 05:55:57;;;;;;;10.03;2.70;;;22.90;99.90;;;;;;4974381;28;20282;-71
2023/10/04 05:58:25;;;;;;;7.00;2.67;;;22.80;99.90;;;;;;4975072;28;20179;-71
2023/10/04 06:00:55;;;;;;;11.40;3.13;;;22.80;99.90;;;;;;4975155;28;20278;-70
2023/10/04 06:03:23;;;;;;;9.80;2.60;;;22.80;99.90;;;;;;4958335;28;20266;-70
2023/10/04 06:05:53;;;;;;;10.33;3.40;;;22.90;99.90;;;;;;4957238;28;20180;-71
2023/10/04 06:08:21;;;;;;;9.40;2.97;;;22.90;99.90;;;;;;4980334;28;20182;-68
2023/10/04 06:10:54;;;;;;;7.17;2.70;;;22.90;99.90;;;;;;4979339;28;20190;-70
2023/10/04 06:13:25;;;;;;;7.77;2.57;;;22.90;99.90;;;;;;4975248;28;20669;-71
2023/10/04 06:15:54;;;;;;;11.63;3.00;;;22.80;99.90;;;;;;4977026;28;20262;-70
2023/10/04 06:18:26;;;;;;;5.20;2.53;;;22.90;99.90;;;;;;4993856;28;20186;-72
2023/10/04 06:20:53;;;;;;;6.87;3.00;;;22.90;99.90;;;;;;4994303;28;20218;-72
2023/10/04 06:23:22;;;;;;;8.77;2.87;;;22.80;99.90;;;;;;4994372;28;20183;-72
2023/10/04 06:25:51;;;;;;;13.57;2.93;;;22.80;99.90;;;;;;4991820;28;20223;-70
2023/10/04 06:28:20;;;;;;;12.10;2.33;;;22.80;99.90;;;;;;4957408;28;20218;-71
2023/10/04 06:30:52;;;;;;;12.63;3.47;;;22.70;99.90;;;;;;4974684;28;20278;-72
2023/10/04 06:33:20;;;;;;;10.20;3.80;;;22.70;99.90;;;;;;4974025;28;20238;-72
2023/10/04 06:35:47;;;;;;;13.80;3.23;;;22.70;99.90;;;;;;4964922;28;20221;-71
2023/10/04 06:38:15;;;;;;;7.60;3.13;;;22.80;99.90;;;;;;4993871;28;20585;-69
2023/10/04 06:40:43;;;;;;;6.27;2.60;;;22.90;99.90;;;;;;4975943;28;20194;-72
2023/10/04 06:43:11;;;;;;;7.77;2.77;;;22.90;99.90;;;;;;4993860;28;20185;-70
2023/10/04 06:45:42;;;;;;;8.70;2.67;;;22.90;99.90;;;;;;4990960;28;20181;-70
2023/10/04 06:48:09;;;;;;;9.17;2.80;;;23.00;99.90;;;;;;4982099;28;20226;-70
2023/10/04 06:50:40;;;;;;;8.00;2.97;;;22.90;99.90;;;;;;4957368;28;20258;-72
2023/10/04 06:53:12;;;;;;;8.87;3.37;;;22.70;99.90;;;;;;4974257;28;20314;-68
2023/10/04 06:55:41;;;;;;;9.37;2.90;;;22.60;99.90;;;;;;4981351;28;20194;-69
2023/10/04 06:58:10;;;;;;;5.90;2.70;;;22.50;99.90;;;;;;4993747;28;20546;-72
2023/10/04 07:00:40;;;;;;;7.33;2.93;;;22.40;99.90;;;;;;4981699;28;20400;-68
2023/10/04 07:03:08;;;;;;;11.83;3.27;;;22.40;99.90;;;;;;4956377;28;20279;-68
2023/10/04 07:05:38;;;;;;;16.00;3.30;;;22.30;99.90;;;;;;4956969;28;20184;-71
2023/10/04 07:08:08;;;;;;;11.93;3.90;;;22.20;99.90;;;;;;4985483;28;20246;-69
2023/10/04 07:10:36;;;;;;;10.23;3.67;;;22.00;99.90;;;;;;4978514;28;20199;-68
2023/10/04 07:13:06;;;;;;;13.23;3.50;;;21.80;99.90;;;;;;4974672;28;20553;-72
2023/10/04 07:15:41;;;;;;;11.57;3.10;;;21.50;99.90;;;;;;4992480;28;20233;-70
2023/10/04 07:18:10;;;;;;;8.00;3.53;;;21.20;99.90;;;;;;4980679;28;20182;-71
2023/10/04 07:20:39;;;;;;;11.27;3.67;;;21.00;99.90;;;;;;4981827;28;20210;-71
2023/10/04 07:23:10;;;;;;;9.33;4.13;;;20.80;99.90;;;;;;4969712;28;20274;-70
2023/10/04 07:25:42;;;;;;;14.37;4.17;;;20.60;99.90;;;;;;4992370;28;20231;-71
2023/10/04 07:28:14;;;;;;;11.30;5.00;;;20.50;99.90;;;;;;4992823;28;20193;-72
2023/10/04 07:30:44;;;;;;;15.73;5.57;;;20.40;99.90;;;;;;4992875;28;20175;-71
2023/10/04 07:33:11;;;;;;;12.83;5.20;;;20.20;99.90;;;;;;4974782;28;20288;-72
2023/10/04 07:35:40;;;;;;;15.23;4.87;;;20.00;99.90;;;;;;4962024;28;20194;-72
2023/10/04 07:38:08;;;;;;;11.10;4.63;;;19.90;99.90;;;;;;4973467;28;20218;-71
2023/10/04 07:40:35;;;;;;;13.03;4.10;;;19.90;99.90;;;;;;4972783;28;20179;-71
2023/10/04 07:43:07;;;;;;;10.87;3.90;;;19.70;99.90;;;;;;4960659;28;20190;-74
2023/10/04 07:45:34;;;;;;;12.47;4.20;;;19.50;99.90;;;;;;4983507;28;20520;-72
2023/10/04 07:48:02;;;;;;;12.47;4.00;;;19.40;99.90;;;;;;4990760;28;20179;-72
2023/10/04 07:50:31;;;;;;;11.43;4.47;;;19.30;99.90;;;;;;4992774;28;20219;-73
2023/10/04 07:53:03;;;;;;;11.17;3.63;;;19.10;99.90;;;;;;4974967;28;20249;-71
2023/10/04 07:55:33;;;;;;;13.57;4.23;;;19.00;99.90;;;;;;4972702;28;20209;-72
2023/10/04 07:58:04;;;;;;;18.07;4.73;;;19.00;99.90;;;;;;4986252;28;20185;-67
2023/10/04 08:00:36;;;;;;;11.67;4.83;;;18.90;99.90;;;;;;4992409;28;20222;-71
2023/10/04 08:03:05;;;;;;;14.63;4.30;;;19.00;99.90;;;;;;4992006;28;20561;-71
2023/10/04 08:05:33;;;;;;;14.37;4.33;;;18.90;99.90;;;;;;4992300;28;20187;-68
2023/10/04 08:08:03;;;;;;;9.07;3.50;;;18.90;99.90;;;;;;4979547;28;20197;-71
2023/10/04 08:10:34;;;;;;;8.60;3.10;;;18.80;99.90;;;;;;4972600;28;20242;-73
2023/10/04 08:13:02;;;;;;;11.90;3.90;;;18.80;99.90;;;;;;4955292;28;20610;-70
2023/10/04 08:15:31;;;;;;;7.17;3.03;;;18.90;99.90;;;;;;4972971;28;20186;-73
2023/10/04 08:18:03;;;;;;;7.10;3.23;;;18.80;99.90;;;;;;4982613;28;20195;-70
2023/10/04 08:20:32;;;;;;;9.73;3.80;;;18.80;99.90;;;;;;4986512;28;20194;-72
2023/10/04 08:23:02;;;;;;;8.87;2.60;;;18.70;99.90;;;;;;4972717;28;20195;-72
2023/10/04 08:25:31;;;;;;;9.57;3.40;;;18.70;99.90;;;;;;4972308;28;20230;-71
2023/10/04 08:28:00;;;;;;;8.90;3.10;;;18.70;99.90;;;;;;4981709;28;20190;-71
2023/10/04 08:30:28;;;;;;;7.57;3.37;;;18.70;99.90;;;;;;4974585;28;20186;-71
2023/10/04 08:32:56;;;;;;;10.50;3.13;;;18.80;99.90;;;;;;4974390;28;20648;-72
2023/10/04 08:35:28;;;;;;;4.27;1.47;;;18.60;99.90;;;;;;4985892;28;20187;-72
2023/10/04 08:38:00;;;;;;;5.17;1.30;;;18.10;99.90;;;;;;4980519;28;20195;-74
2023/10/04 08:40:38;;;;;;;4.53;1.70;;;18.00;99.90;;;;;;4991733;28;20248;-73
2023/10/04 08:43:07;;;;;;;4.70;1.20;;;17.90;99.90;;;;;;4992096;28;20236;-72
2023/10/04 08:45:35;;;;;;;2.67;1.20;;;17.70;99.90;;;;;;4955593;28;20637;-73
2023/10/04 08:48:04;;;;;;;2.30;1.23;;;17.60;99.90;;;;;;4972291;28;20191;-72
2023/10/04 08:50:36;;;;;;;4.90;1.20;;;17.40;99.90;;;;;;4955323;28;20214;-70
2023/10/04 08:53:11;;;;;;;3.83;1.47;;;17.40;99.90;;;;;;4972970;28;20199;-72
2023/10/04 08:55:41;;;;;;;2.77;1.30;;;17.50;99.90;;;;;;4973973;28;20198;-71
2023/10/04 08:58:10;;;;;;;1.37;0.87;;;17.50;99.90;;;;;;4974183;28;20182;-71
2023/10/04 09:00:48;;;;;;;1.67;0.83;;;17.40;99.90;;;;;;4973991;28;20185;-72
2023/10/04 09:03:19;;;;;;;2.87;0.87;;;17.40;99.90;;;;;;4991631;28;20531;-72
2023/10/04 09:05:52;;;;;;;1.67;0.97;;;17.50;99.90;;;;;;4979396;28;20187;-71
2023/10/04 09:08:22;;;;;;;3.53;0.73;;;17.40;99.90;;;;;;4971738;28;20251;-73
2023/10/04 09:10:50;;;;;;;1.43;1.07;;;17.40;99.90;;;;;;4956866;28;20664;-73
2023/10/04 09:13:20;;;;;;;1.40;0.70;;;17.20;99.90;;;;;;4984017;28;20585;-72
2023/10/04 09:15:48;;;;;;;2.77;1.03;;;17.20;99.90;;;;;;4993222;28;20241;-71
2023/10/04 09:18:27;;;;;;;2.30;0.80;;;17.00;99.90;;;;;;4988530;28;20669;-72
2023/10/04 09:21:13;;;;;;;2.10;0.80;;;17.00;99.90;;;;;;4988991;28;20222;-73
2023/10/04 09:23:43;;;;;;;2.60;0.90;;;16.90;99.90;;;;;;4973551;28;20279;-71
2023/10/04 09:26:18;;;;;;;1.17;0.80;;;16.80;99.90;;;;;;4990548;28;20222;-72
2023/10/04 09:28:49;;;;;;;2.37;1.10;;;16.80;99.90;;;;;;4992531;28;20194;-72
2023/10/04 09:31:19;;;;;;;2.50;1.83;;;16.70;99.90;;;;;;4977355;28;20274;-71
2023/10/04 09:33:46;;;;;;;4.90;3.73;;;16.70;99.90;;;;;;4995466;28;20274;-70
2023/10/04 09:36:33;;;;;;;5.87;4.47;;;16.70;99.90;;;;;;4996909;28;20508;-73
2023/10/04 09:39:16;;;;;;;12.27;4.70;;;16.70;99.90;;;;;;4973366;28;20183;-72
2023/10/04 09:41:47;;;;;;;7.90;3.40;;;16.60;99.90;;;;;;4988027;28;20241;-71
2023/10/04 09:44:27;;;;;;;3.00;2.27;;;16.50;99.90;;;;;;4942817;28;20551;-72
2023/10/04 09:47:01;;;;;;;5.00;1.83;;;16.50;99.90;;;;;;4989429;28;20193;-75
2023/10/04 09:49:33;;;;;;;5.00;2.30;;;16.40;99.90;;;;;;4979984;28;20191;-70
2023/10/04 09:52:03;;;;;;;8.73;3.87;;;16.30;99.90;;;;;;4975456;28;20238;-73
2023/10/04 09:54:36;;;;;;;6.87;3.90;;;16.30;99.90;;;;;;4974596;28;20227;-72
2023/10/04 09:57:12;;;;;;;3.53;2.30;;;16.30;99.90;;;;;;4975621;28;20269;-72
2023/10/04 09:59:43;;;;;;;4.03;2.23;;;16.20;99.90;;;;;;4973998;28;20230;-73
2023/10/04 10:02:15;;;;;;;3.13;1.97;;;16.20;99.90;;;;;;4974600;28;20226;-73
2023/10/04 10:04:48;;;;;;;3.07;2.03;;;16.00;99.90;;;;;;4975174;28;20183;-71
2023/10/04 10:07:21;;;;;;;2.40;1.70;;;16.00;99.90;;;;;;4957865;28;20211;-74
2023/10/04 10:10:04;;;;;;;3.63;2.00;;;16.00;99.90;;;;;;4979149;28;20190;-71
2023/10/04 10:12:33;;;;;;;4.83;1.90;;;16.00;99.90;;;;;;4975238;28;20182;-73
2023/10/04 10:15:07;;;;;;;2.00;1.20;;;15.90;99.90;;;;;;4957811;28;20224;-74
2023/10/04 10:17:35;;;;;;;2.20;1.10;;;15.90;99.90;;;;;;4958836;28;20183;-73
2023/10/04 10:20:05;;;;;;;4.63;1.03;;;15.90;99.90;;;;;;4980440;28;20190;-72
2023/10/04 10:22:33;;;;;;;4.07;1.40;;;16.00;99.90;;;;;;4995583;28;20671;-72
2023/10/04 10:25:10;;;;;;;1.87;1.27;;;15.90;99.90;;;;;;4995602;28;20571;-71
2023/10/04 10:27:38;;;;;;;3.00;1.10;;;15.80;99.90;;;;;;4995836;28;20181;-73
2023/10/04 10:30:08;;;;;;;2.30;1.20;;;15.80;99.90;;;;;;4995668;28;20205;-72
2023/10/04 10:32:36;;;;;;;3.37;1.17;;;15.80;99.90;;;;;;4995509;28;20273;-72
2023/10/04 10:35:08;;;;;;;1.67;1.00;;;15.70;99.90;;;;;;4996097;28;20684;-74
2023/10/04 10:37:38;;;;;;;5.40;0.97;;;15.70;99.90;;;;;;4995923;28;20193;-74
2023/10/04 10:40:37;;;;;;;2.40;1.20;;;15.60;99.90;;;;;;4995418;28;20187;-75
2023/10/04 10:43:08;;;;;;;2.30;1.40;;;15.50;99.90;;;;;;4989632;28;20192;-73
2023/10/04 10:45:37;;;;;;;2.90;1.57;;;15.40;99.90;;;;;;4958887;28;20192;-72
2023/10/04 10:48:11;;;;;;;1.50;1.10;;;15.30;99.90;;;;;;4978089;28;20178;-72
2023/10/04 10:50:42;;;;;;;4.97;1.20;;;15.20;99.90;;;;;;4959978;28;20317;-71
2023/10/04 10:53:18;;;;;;;2.10;1.50;;;15.00;99.90;;;;;;4958150;28;20276;-71
2023/10/04 10:55:45;;;;;;;1.70;1.40;;;14.70;99.90;;;;;;4964393;28;20557;-71
2023/10/04 10:58:13;;;;;;;4.67;2.20;;;14.70;99.90;;;;;;4992812;28;20193;-72
2023/10/04 11:00:41;;;;;;;3.57;2.43;;;14.60;99.90;;;;;;4975551;28;20200;-73
2023/10/04 11:03:09;;;;;;;6.93;3.10;;;14.60;99.90;;;;;;4973630;28;20222;-71
2023/10/04 11:05:37;;;;;;;2.30;1.50;;;14.50;99.90;;;;;;4973600;28;20191;-71
2023/10/04 11:08:12;;;;;;;4.77;1.20;;;14.30;99.90;;;;;;4984091;28;20186;-71
2023/10/04 11:10:41;;;;;;;0.70;0.70;;;14.00;99.90;;;;;;4972621;28;20331;-72
2023/10/04 11:13:14;;;;;;;0.97;0.50;;;13.90;99.90;;;;;;4987537;28;20194;-72
2023/10/04 11:15:43;;;;;;;2.10;0.53;;;13.80;99.90;;;;;;4975236;28;20664;-73
2023/10/04 11:18:16;;;;;;;1.33;0.70;;;13.90;99.90;;;;;;4986009;28;20642;-73
2023/10/04 11:21:04;;;;;;;1.63;0.70;;;13.90;99.90;;;;;;4978352;28;20277;-72
2023/10/04 11:23:37;;;;;;;3.30;0.80;;;13.90;99.90;;;;;;4981607;28;20214;-71
2023/10/04 11:26:08;;;;;;;2.83;0.90;;;13.90;99.90;;;;;;4972123;28;20287;-72
2023/10/04 11:28:36;;;;;;;1.37;0.80;;;13.80;99.90;;;;;;4993993;28;20181;-71
2023/10/04 11:31:09;;;;;;;0.70;0.70;;;13.70;99.90;;;;;;4976298;28;20217;-72
2023/10/04 11:33:59;;;;;;;1.57;0.80;;;13.70;99.90;;;;;;4975420;28;20573;-72
2023/10/04 11:36:27;;;;;;;1.20;0.90;;;13.70;99.90;;;;;;4984661;28;20196;-72
2023/10/04 11:38:56;;;;;;;2.37;1.10;;;13.80;99.90;;;;;;4994166;28;20193;-71
2023/10/04 11:41:36;;;;;;;2.40;1.00;;;13.80;99.90;;;;;;4986405;28;20193;-71
2023/10/04 11:44:05;;;;;;;2.80;1.10;;;13.70;99.90;;;;;;4991314;28;20328;-72
2023/10/04 11:46:55;;;;;;;1.13;0.90;;;13.80;99.90;;;;;;4957516;28;20233;-71
2023/10/04 11:49:23;;;;;;;1.13;0.70;;;13.80;99.90;;;;;;4978366;28;20187;-72
2023/10/04 11:51:50;;;;;;;1.67;1.23;;;13.70;99.90;;;;;;4991188;28;20600;-72
2023/10/04 11:54:23;;;;;;;1.33;0.80;;;13.70;99.90;;;;;;4992141;28;20240;-72
2023/10/04 11:56:51;;;;;;;1.77;0.87;;;13.60;99.90;;;;;;4974531;28;20558;-72
2023/10/04 11:59:32;;;;;;;1.00;0.60;;;13.50;99.90;;;;;;4984125;28;20249;-72
2023/10/04 12:02:00;;;;;;;2.00;0.67;;;13.40;99.90;;;;;;4946170;28;20240;-72
2023/10/04 12:04:32;;;;;;;0.70;0.60;;;13.40;99.90;;;;;;4991138;28;20269;-72
2023/10/04 12:07:02;;;;;;;1.13;0.60;;;13.40;99.90;;;;;;4974524;28;20217;-70
2023/10/04 12:09:34;;;;;;;1.30;0.80;;;13.40;99.90;;;;;;4977015;28;20198;-72
2023/10/04 12:12:09;;;;;;;1.57;1.00;;;13.40;99.90;;;;;;4988199;28;20202;-71
2023/10/04 12:14:37;;;;;;;2.10;0.90;;;13.40;99.90;;;;;;4992906;28;20186;-72
2023/10/04 12:17:08;;;;;;;1.47;1.20;;;13.40;99.90;;;;;;4974989;28;20210;-72
2023/10/04 12:19:39;;;;;;;3.17;1.20;;;13.40;99.90;;;;;;4963775;28;20182;-72
2023/10/04 12:22:11;;;;;;;2.43;0.90;;;13.40;99.90;;;;;;4976455;28;20226;-69
2023/10/04 12:24:40;;;;;;;0.77;0.70;;;13.30;99.90;;;;;;4988073;28;20222;-71
2023/10/04 12:27:08;;;;;;;2.90;1.43;;;13.30;99.90;;;;;;4978078;28;20242;-71
2023/10/04 12:29:39;;;;;;;0.70;0.70;;;13.20;99.90;;;;;;4980601;28;20598;-69
2023/10/04 12:32:07;;;;;;;0.97;0.93;;;13.20;99.90;;;;;;4978640;28;20595;-72
2023/10/04 12:34:36;;;;;;;0.70;0.70;;;13.20;99.90;;;;;;4979723;28;20190;-72
2023/10/04 12:37:04;;;;;;;1.50;0.77;;;13.30;99.90;;;;;;4992492;28;20192;-66
2023/10/04 12:39:32;;;;;;;0.97;0.90;;;13.30;99.90;;;;;;4973703;28;20217;-71
2023/10/04 12:42:03;;;;;;;1.60;0.70;;;13.20;99.90;;;;;;4971454;28;20197;-68
2023/10/04 12:44:31;;;;;;;1.10;1.00;;;13.30;99.90;;;;;;4993631;28;20228;-69
2023/10/04 12:46:58;;;;;;;1.67;1.00;;;13.30;99.90;;;;;;4976423;28;20190;-71
2023/10/04 12:49:28;;;;;;;3.97;1.50;;;13.40;99.90;;;;;;4989266;28;20197;-69
2023/10/04 12:51:55;;;;;;;4.87;1.80;;;13.40;99.90;;;;;;4956716;28;20183;-72
2023/10/04 12:54:24;;;;;;;4.73;1.60;;;13.30;99.90;;;;;;4974326;28;20183;-65
2023/10/04 12:56:55;;;;;;;1.00;0.90;;;13.30;99.90;;;;;;4957253;28;20640;-69
2023/10/04 12:59:23;;;;;;;1.03;0.80;;;13.30;99.90;;;;;;4968337;28;20219;-68